Jamestown, North Dakota
Current Conditions -  °F | °C
As of 12:56 AM on Friday 19 Dec 2014 (Local Time) from KJMS Reporting Station
Haze Haze  
Wind Chill: 14°   Ceiling: 500
Heat Index: 24°   Visibility: 4mi
Dew Point: 23°   Wind: 9mph
Humidity: 96%   Direction: 180°S
Pressure: 30.04"   Gusts: NA
Location:  46.91°N, 98.71°W
Report Text: KJMS 190656Z AUTO 18008KT 4SM BR OVC005 M04/M05 A3004 RMK AO2 SLP197 T10441050
Loading
Personal Weather Stations






























Interactive Weather Map New forecast layout! Learn more

10-Day Weather Forecast

Advertisements
Track Severe Weather on mobile